Terminal Aerodrome Forecast
Issued by NWS

Home | Current Version | Previous Version | Text Only | Print | Product List | Glossary Off
Versions: 1 2 3 4 5 6 7 8 9 10 11 12 13 14 15 16 17 18

000
FTUS43 KMPX 191600 AAA
TAFRWF
TAF AMD
KRWF 191640Z 1917/2012 31017G27KT P6SM SCT026 BKN040
     FM192100 29016G25KT P6SM BKN035
     FM200100 29008KT P6SM SCT030=

USA.gov is the U.S. government's official web portal to all federal, state and local government web resources and services.